sensor_id;sensor_type;location;lat;lon;timestamp;P1;durP1;ratioP1;P2;durP2;ratioP2
22967;SDS011;11650;48.106;-1.696;2023-04-23T00:00:50;32.30;;;5.37;;
22967;SDS011;11650;48.106;-1.696;2023-04-23T00:03:16;27.37;;;5.30;;
22967;SDS011;11650;48.106;-1.696;2023-04-23T00:05:43;31.93;;;5.90;;
22967;SDS011;11650;48.106;-1.696;2023-04-23T00:08:09;29.53;;;4.83;;
22967;SDS011;11650;48.106;-1.696;2023-04-23T00:10:35;29.30;;;5.27;;
22967;SDS011;11650;48.106;-1.696;2023-04-23T00:13:01;32.20;;;5.40;;
22967;SDS011;11650;48.106;-1.696;2023-04-23T00:15:28;31.33;;;5.67;;
22967;SDS011;11650;48.106;-1.696;2023-04-23T00:17:54;30.77;;;5.60;;
22967;SDS011;11650;48.106;-1.696;2023-04-23T00:20:20;25.47;;;5.60;;
22967;SDS011;11650;48.106;-1.696;2023-04-23T00:22:46;31.13;;;5.73;;
22967;SDS011;11650;48.106;-1.696;2023-04-23T00:25:12;27.70;;;5.37;;
22967;SDS011;11650;48.106;-1.696;2023-04-23T00:27:38;38.77;;;5.47;;
22967;SDS011;11650;48.106;-1.696;2023-04-23T00:30:04;26.30;;;5.90;;
22967;SDS011;11650;48.106;-1.696;2023-04-23T00:32:30;21.43;;;4.97;;
22967;SDS011;11650;48.106;-1.696;2023-04-23T00:34:56;29.20;;;5.83;;
22967;SDS011;11650;48.106;-1.696;2023-04-23T00:37:22;31.13;;;5.73;;
22967;SDS011;11650;48.106;-1.696;2023-04-23T00:39:48;22.80;;;5.33;;
22967;SDS011;11650;48.106;-1.696;2023-04-23T00:42:13;28.33;;;5.43;;
22967;SDS011;11650;48.106;-1.696;2023-04-23T00:44:41;26.30;;;5.13;;
22967;SDS011;11650;48.106;-1.696;2023-04-23T00:47:07;20.53;;;3.80;;
22967;SDS011;11650;48.106;-1.696;2023-04-23T00:49:33;21.40;;;4.30;;
22967;SDS011;11650;48.106;-1.696;2023-04-23T00:52:00;13.00;;;2.53;;
22967;SDS011;11650;48.106;-1.696;2023-04-23T00:54:26;11.33;;;2.47;;
22967;SDS011;11650;48.106;-1.696;2023-04-23T00:56:52;11.47;;;2.70;;
22967;SDS011;11650;48.106;-1.696;2023-04-23T00:59:19;14.30;;;2.87;;
22967;SDS011;11650;48.106;-1.696;2023-04-23T01:01:45;10.03;;;2.30;;
22967;SDS011;11650;48.106;-1.696;2023-04-23T01:04:12;8.03;;;1.97;;
22967;SDS011;11650;48.106;-1.696;2023-04-23T01:06:40;11.77;;;2.27;;
22967;SDS011;11650;48.106;-1.696;2023-04-23T01:09:07;10.73;;;2.47;;
22967;SDS011;11650;48.106;-1.696;2023-04-23T01:11:37;11.73;;;2.40;;
22967;SDS011;11650;48.106;-1.696;2023-04-23T01:14:04;8.87;;;2.23;;
22967;SDS011;11650;48.106;-1.696;2023-04-23T01:16:30;12.60;;;2.70;;
22967;SDS011;11650;48.106;-1.696;2023-04-23T01:18:56;8.73;;;2.40;;
22967;SDS011;11650;48.106;-1.696;2023-04-23T01:21:22;12.00;;;2.87;;
22967;SDS011;11650;48.106;-1.696;2023-04-23T01:23:49;11.50;;;3.03;;
22967;SDS011;11650;48.106;-1.696;2023-04-23T01:26:15;18.00;;;3.10;;
22967;SDS011;11650;48.106;-1.696;2023-04-23T01:28:43;18.03;;;3.60;;
22967;SDS011;11650;48.106;-1.696;2023-04-23T01:31:09;16.23;;;3.87;;
22967;SDS011;11650;48.106;-1.696;2023-04-23T01:33:37;17.33;;;3.60;;
22967;SDS011;11650;48.106;-1.696;2023-04-23T01:36:05;15.67;;;3.73;;
22967;SDS011;11650;48.106;-1.696;2023-04-23T01:38:32;20.13;;;4.10;;
22967;SDS011;11650;48.106;-1.696;2023-04-23T01:40:59;19.97;;;3.73;;
22967;SDS011;11650;48.106;-1.696;2023-04-23T01:43:25;21.67;;;4.20;;
22967;SDS011;11650;48.106;-1.696;2023-04-23T01:45:52;19.33;;;3.97;;
22967;SDS011;11650;48.106;-1.696;2023-04-23T01:48:18;20.73;;;4.40;;
22967;SDS011;11650;48.106;-1.696;2023-04-23T01:50:43;17.40;;;4.20;;
22967;SDS011;11650;48.106;-1.696;2023-04-23T01:53:09;22.93;;;4.37;;
22967;SDS011;11650;48.106;-1.696;2023-04-23T01:55:38;17.73;;;3.23;;
22967;SDS011;11650;48.106;-1.696;2023-04-23T01:58:05;15.23;;;3.33;;
22967;SDS011;11650;48.106;-1.696;2023-04-23T02:00:31;12.17;;;3.33;;
22967;SDS011;11650;48.106;-1.696;2023-04-23T02:02:57;10.13;;;2.73;;
22967;SDS011;11650;48.106;-1.696;2023-04-23T02:05:22;10.43;;;3.03;;
22967;SDS011;11650;48.106;-1.696;2023-04-23T02:07:49;17.53;;;3.30;;
22967;SDS011;11650;48.106;-1.696;2023-04-23T02:10:16;15.00;;;3.23;;
22967;SDS011;11650;48.106;-1.696;2023-04-23T02:12:45;15.07;;;3.70;;
22967;SDS011;11650;48.106;-1.696;2023-04-23T02:15:11;16.93;;;3.90;;
22967;SDS011;11650;48.106;-1.696;2023-04-23T02:17:38;16.37;;;4.40;;
22967;SDS011;11650;48.106;-1.696;2023-04-23T02:20:04;13.47;;;3.33;;
22967;SDS011;11650;48.106;-1.696;2023-04-23T02:22:31;12.10;;;4.10;;
22967;SDS011;11650;48.106;-1.696;2023-04-23T02:24:57;16.23;;;3.63;;
22967;SDS011;11650;48.106;-1.696;2023-04-23T02:27:23;16.90;;;4.67;;
22967;SDS011;11650;48.106;-1.696;2023-04-23T02:29:49;14.57;;;3.70;;
22967;SDS011;11650;48.106;-1.696;2023-04-23T02:32:16;11.93;;;3.43;;
22967;SDS011;11650;48.106;-1.696;2023-04-23T02:34:42;9.57;;;3.03;;
22967;SDS011;11650;48.106;-1.696;2023-04-23T02:37:07;9.30;;;2.80;;
22967;SDS011;11650;48.106;-1.696;2023-04-23T02:39:33;7.90;;;2.80;;
22967;SDS011;11650;48.106;-1.696;2023-04-23T02:41:58;7.93;;;2.57;;
22967;SDS011;11650;48.106;-1.696;2023-04-23T02:44:24;5.57;;;2.30;;
22967;SDS011;11650;48.106;-1.696;2023-04-23T02:46:50;8.67;;;2.47;;
22967;SDS011;11650;48.106;-1.696;2023-04-23T02:49:17;9.20;;;2.23;;
22967;SDS011;11650;48.106;-1.696;2023-04-23T02:51:44;4.70;;;1.67;;
22967;SDS011;11650;48.106;-1.696;2023-04-23T02:54:10;7.33;;;1.70;;
22967;SDS011;11650;48.106;-1.696;2023-04-23T02:56:36;5.43;;;1.40;;
22967;SDS011;11650;48.106;-1.696;2023-04-23T02:59:02;3.97;;;1.37;;
22967;SDS011;11650;48.106;-1.696;2023-04-23T03:01:28;5.40;;;1.57;;
22967;SDS011;11650;48.106;-1.696;2023-04-23T03:03:54;7.70;;;1.63;;
22967;SDS011;11650;48.106;-1.696;2023-04-23T03:06:20;7.67;;;1.50;;
22967;SDS011;11650;48.106;-1.696;2023-04-23T03:08:45;9.20;;;1.70;;
22967;SDS011;11650;48.106;-1.696;2023-04-23T03:11:11;8.13;;;1.63;;
22967;SDS011;11650;48.106;-1.696;2023-04-23T03:13:37;7.70;;;1.90;;
22967;SDS011;11650;48.106;-1.696;2023-04-23T03:16:02;6.90;;;1.50;;
22967;SDS011;11650;48.106;-1.696;2023-04-23T03:18:28;6.20;;;1.87;;
22967;SDS011;11650;48.106;-1.696;2023-04-23T03:20:54;7.10;;;2.10;;
22967;SDS011;11650;48.106;-1.696;2023-04-23T03:23:20;6.60;;;1.53;;
22967;SDS011;11650;48.106;-1.696;2023-04-23T03:25:45;7.30;;;1.63;;
22967;SDS011;11650;48.106;-1.696;2023-04-23T03:28:11;9.03;;;1.70;;
22967;SDS011;11650;48.106;-1.696;2023-04-23T03:30:37;10.57;;;1.90;;
22967;SDS011;11650;48.106;-1.696;2023-04-23T03:33:02;5.90;;;1.70;;
22967;SDS011;11650;48.106;-1.696;2023-04-23T03:35:28;8.17;;;1.93;;
22967;SDS011;11650;48.106;-1.696;2023-04-23T03:37:54;5.87;;;2.00;;
22967;SDS011;11650;48.106;-1.696;2023-04-23T03:40:20;7.90;;;1.80;;
22967;SDS011;11650;48.106;-1.696;2023-04-23T03:42:46;7.63;;;1.73;;
22967;SDS011;11650;48.106;-1.696;2023-04-23T03:45:13;6.87;;;1.60;;
22967;SDS011;11650;48.106;-1.696;2023-04-23T03:47:39;6.30;;;1.67;;
22967;SDS011;11650;48.106;-1.696;2023-04-23T03:50:06;7.77;;;1.80;;
22967;SDS011;11650;48.106;-1.696;2023-04-23T03:52:32;5.03;;;1.70;;
22967;SDS011;11650;48.106;-1.696;2023-04-23T03:54:57;5.50;;;1.77;;
22967;SDS011;11650;48.106;-1.696;2023-04-23T03:57:23;5.83;;;1.60;;
22967;SDS011;11650;48.106;-1.696;2023-04-23T03:59:49;7.83;;;1.80;;
22967;SDS011;11650;48.106;-1.696;2023-04-23T04:02:14;7.03;;;1.90;;
22967;SDS011;11650;48.106;-1.696;2023-04-23T04:04:40;9.67;;;2.20;;
22967;SDS011;11650;48.106;-1.696;2023-04-23T04:07:07;7.23;;;1.97;;
22967;SDS011;11650;48.106;-1.696;2023-04-23T04:09:35;10.43;;;2.50;;
22967;SDS011;11650;48.106;-1.696;2023-04-23T04:12:02;11.53;;;2.70;;
22967;SDS011;11650;48.106;-1.696;2023-04-23T04:14:28;8.47;;;2.73;;
22967;SDS011;11650;48.106;-1.696;2023-04-23T04:16:55;9.37;;;3.00;;
22967;SDS011;11650;48.106;-1.696;2023-04-23T04:19:21;8.63;;;2.83;;
22967;SDS011;11650;48.106;-1.696;2023-04-23T04:21:46;11.70;;;3.20;;
22967;SDS011;11650;48.106;-1.696;2023-04-23T04:24:12;10.33;;;2.47;;
22967;SDS011;11650;48.106;-1.696;2023-04-23T04:26:38;11.83;;;2.47;;
22967;SDS011;11650;48.106;-1.696;2023-04-23T04:29:04;11.40;;;2.30;;
22967;SDS011;11650;48.106;-1.696;2023-04-23T04:31:30;9.50;;;1.97;;
22967;SDS011;11650;48.106;-1.696;2023-04-23T04:33:57;6.70;;;1.80;;
22967;SDS011;11650;48.106;-1.696;2023-04-23T04:36:23;8.70;;;2.03;;
22967;SDS011;11650;48.106;-1.696;2023-04-23T04:38:51;6.10;;;1.80;;
22967;SDS011;11650;48.106;-1.696;2023-04-23T04:41:20;7.13;;;1.50;;
22967;SDS011;11650;48.106;-1.696;2023-04-23T04:43:46;5.33;;;1.60;;
22967;SDS011;11650;48.106;-1.696;2023-04-23T04:46:12;7.43;;;1.70;;
22967;SDS011;11650;48.106;-1.696;2023-04-23T04:48:39;9.07;;;1.70;;
22967;SDS011;11650;48.106;-1.696;2023-04-23T04:51:05;6.60;;;1.53;;
22967;SDS011;11650;48.106;-1.696;2023-04-23T04:53:31;6.23;;;1.93;;
22967;SDS011;11650;48.106;-1.696;2023-04-23T04:55:56;8.13;;;2.10;;
22967;SDS011;11650;48.106;-1.696;2023-04-23T04:58:22;6.93;;;1.93;;
22967;SDS011;11650;48.106;-1.696;2023-04-23T05:00:48;8.47;;;2.20;;
22967;SDS011;11650;48.106;-1.696;2023-04-23T05:03:16;10.37;;;2.30;;
22967;SDS011;11650;48.106;-1.696;2023-04-23T05:05:43;8.90;;;2.20;;
22967;SDS011;11650;48.106;-1.696;2023-04-23T05:08:09;6.53;;;1.80;;
22967;SDS011;11650;48.106;-1.696;2023-04-23T05:10:35;7.47;;;1.77;;
22967;SDS011;11650;48.106;-1.696;2023-04-23T05:13:01;9.73;;;2.10;;
22967;SDS011;11650;48.106;-1.696;2023-04-23T05:15:27;10.57;;;2.63;;
22967;SDS011;11650;48.106;-1.696;2023-04-23T05:17:52;8.87;;;2.23;;
22967;SDS011;11650;48.106;-1.696;2023-04-23T05:20:18;12.03;;;2.50;;
22967;SDS011;11650;48.106;-1.696;2023-04-23T05:22:44;8.90;;;2.50;;
22967;SDS011;11650;48.106;-1.696;2023-04-23T05:25:10;11.00;;;2.80;;
22967;SDS011;11650;48.106;-1.696;2023-04-23T05:27:36;9.53;;;2.80;;
22967;SDS011;11650;48.106;-1.696;2023-04-23T05:30:02;12.00;;;2.77;;
22967;SDS011;11650;48.106;-1.696;2023-04-23T05:32:30;9.33;;;2.50;;
22967;SDS011;11650;48.106;-1.696;2023-04-23T05:34:56;9.63;;;2.37;;
22967;SDS011;11650;48.106;-1.696;2023-04-23T05:37:24;7.17;;;2.50;;
22967;SDS011;11650;48.106;-1.696;2023-04-23T05:39:49;10.20;;;2.20;;
22967;SDS011;11650;48.106;-1.696;2023-04-23T05:42:15;10.93;;;2.73;;
22967;SDS011;11650;48.106;-1.696;2023-04-23T05:44:41;9.07;;;2.53;;
22967;SDS011;11650;48.106;-1.696;2023-04-23T05:47:07;7.53;;;2.70;;
22967;SDS011;11650;48.106;-1.696;2023-04-23T05:49:34;11.47;;;2.57;;
22967;SDS011;11650;48.106;-1.696;2023-04-23T05:52:00;13.40;;;2.50;;
22967;SDS011;11650;48.106;-1.696;2023-04-23T05:54:29;8.73;;;3.10;;
22967;SDS011;11650;48.106;-1.696;2023-04-23T05:56:55;9.47;;;2.80;;
22967;SDS011;11650;48.106;-1.696;2023-04-23T05:59:21;12.37;;;3.20;;
22967;SDS011;11650;48.106;-1.696;2023-04-23T06:01:47;11.87;;;2.90;;
22967;SDS011;11650;48.106;-1.696;2023-04-23T06:04:13;10.00;;;2.53;;
22967;SDS011;11650;48.106;-1.696;2023-04-23T06:06:41;10.53;;;2.73;;
22967;SDS011;11650;48.106;-1.696;2023-04-23T06:09:06;15.37;;;3.13;;
22967;SDS011;11650;48.106;-1.696;2023-04-23T06:11:32;8.57;;;2.80;;
22967;SDS011;11650;48.106;-1.696;2023-04-23T06:14:00;6.97;;;2.67;;
22967;SDS011;11650;48.106;-1.696;2023-04-23T06:16:28;11.70;;;2.97;;
22967;SDS011;11650;48.106;-1.696;2023-04-23T06:18:54;12.30;;;2.57;;
22967;SDS011;11650;48.106;-1.696;2023-04-23T06:21:23;11.83;;;2.87;;
22967;SDS011;11650;48.106;-1.696;2023-04-23T06:23:48;9.10;;;3.13;;
22967;SDS011;11650;48.106;-1.696;2023-04-23T06:26:14;11.30;;;3.67;;
22967;SDS011;11650;48.106;-1.696;2023-04-23T06:28:41;8.67;;;3.00;;
22967;SDS011;11650;48.106;-1.696;2023-04-23T06:31:07;8.47;;;3.00;;
22967;SDS011;11650;48.106;-1.696;2023-04-23T06:33:33;11.70;;;3.23;;
22967;SDS011;11650;48.106;-1.696;2023-04-23T06:36:01;9.30;;;2.60;;
22967;SDS011;11650;48.106;-1.696;2023-04-23T06:38:27;9.60;;;3.40;;
22967;SDS011;11650;48.106;-1.696;2023-04-23T06:40:52;9.50;;;2.73;;
22967;SDS011;11650;48.106;-1.696;2023-04-23T06:43:18;5.40;;;2.57;;
22967;SDS011;11650;48.106;-1.696;2023-04-23T06:45:44;9.57;;;3.27;;
22967;SDS011;11650;48.106;-1.696;2023-04-23T06:48:09;5.73;;;2.50;;
22967;SDS011;11650;48.106;-1.696;2023-04-23T06:50:35;4.70;;;2.60;;
22967;SDS011;11650;48.106;-1.696;2023-04-23T06:53:01;7.87;;;3.37;;
22967;SDS011;11650;48.106;-1.696;2023-04-23T06:55:26;9.80;;;2.80;;
22967;SDS011;11650;48.106;-1.696;2023-04-23T06:57:53;6.43;;;3.03;;
22967;SDS011;11650;48.106;-1.696;2023-04-23T07:00:19;6.97;;;2.77;;
22967;SDS011;11650;48.106;-1.696;2023-04-23T07:02:48;7.03;;;3.27;;
22967;SDS011;11650;48.106;-1.696;2023-04-23T07:05:15;7.63;;;2.70;;
22967;SDS011;11650;48.106;-1.696;2023-04-23T07:07:41;11.40;;;3.80;;
22967;SDS011;11650;48.106;-1.696;2023-04-23T07:10:07;10.43;;;3.50;;
22967;SDS011;11650;48.106;-1.696;2023-04-23T07:12:34;11.00;;;3.63;;
22967;SDS011;11650;48.106;-1.696;2023-04-23T07:15:00;8.93;;;3.30;;
22967;SDS011;11650;48.106;-1.696;2023-04-23T07:17:26;5.83;;;2.30;;
22967;SDS011;11650;48.106;-1.696;2023-04-23T07:19:52;8.30;;;1.30;;
22967;SDS011;11650;48.106;-1.696;2023-04-23T07:22:17;4.87;;;0.90;;
22967;SDS011;11650;48.106;-1.696;2023-04-23T07:24:43;1.77;;;0.80;;
22967;SDS011;11650;48.106;-1.696;2023-04-23T07:27:09;0.37;;;0.37;;
22967;SDS011;11650;48.106;-1.696;2023-04-23T07:29:34;1.33;;;0.50;;
22967;SDS011;11650;48.106;-1.696;2023-04-23T07:32:00;1.37;;;0.70;;
22967;SDS011;11650;48.106;-1.696;2023-04-23T07:34:26;0.70;;;0.40;;
22967;SDS011;11650;48.106;-1.696;2023-04-23T07:36:51;0.60;;;0.50;;
22967;SDS011;11650;48.106;-1.696;2023-04-23T07:39:17;1.73;;;0.60;;
22967;SDS011;11650;48.106;-1.696;2023-04-23T07:41:43;2.07;;;0.60;;
22967;SDS011;11650;48.106;-1.696;2023-04-23T07:44:08;0.80;;;0.50;;
22967;SDS011;11650;48.106;-1.696;2023-04-23T07:46:34;0.80;;;0.50;;
22967;SDS011;11650;48.106;-1.696;2023-04-23T07:49:00;0.83;;;0.50;;
22967;SDS011;11650;48.106;-1.696;2023-04-23T07:51:25;3.83;;;0.53;;
22967;SDS011;11650;48.106;-1.696;2023-04-23T07:53:51;1.27;;;0.60;;
22967;SDS011;11650;48.106;-1.696;2023-04-23T07:56:18;1.10;;;0.50;;
22967;SDS011;11650;48.106;-1.696;2023-04-23T07:58:46;0.70;;;0.60;;
22967;SDS011;11650;48.106;-1.696;2023-04-23T08:01:11;3.43;;;0.60;;
22967;SDS011;11650;48.106;-1.696;2023-04-23T08:03:37;1.03;;;0.60;;
22967;SDS011;11650;48.106;-1.696;2023-04-23T08:06:03;0.83;;;0.50;;
22967;SDS011;11650;48.106;-1.696;2023-04-23T08:08:29;1.00;;;0.63;;
22967;SDS011;11650;48.106;-1.696;2023-04-23T08:10:54;1.27;;;0.50;;
22967;SDS011;11650;48.106;-1.696;2023-04-23T08:13:20;1.27;;;0.60;;
22967;SDS011;11650;48.106;-1.696;2023-04-23T08:15:46;1.20;;;0.57;;
22967;SDS011;11650;48.106;-1.696;2023-04-23T08:18:13;1.90;;;0.70;;
22967;SDS011;11650;48.106;-1.696;2023-04-23T08:20:39;1.93;;;0.60;;
22967;SDS011;11650;48.106;-1.696;2023-04-23T08:23:05;0.50;;;0.50;;
22967;SDS011;11650;48.106;-1.696;2023-04-23T08:25:31;0.60;;;0.60;;
22967;SDS011;11650;48.106;-1.696;2023-04-23T08:27:56;1.20;;;0.70;;
22967;SDS011;11650;48.106;-1.696;2023-04-23T08:30:23;1.97;;;0.90;;
22967;SDS011;11650;48.106;-1.696;2023-04-23T08:32:49;4.10;;;0.87;;
22967;SDS011;11650;48.106;-1.696;2023-04-23T08:35:17;1.87;;;0.80;;
22967;SDS011;11650;48.106;-1.696;2023-04-23T08:37:44;1.40;;;0.70;;
22967;SDS011;11650;48.106;-1.696;2023-04-23T08:40:10;1.17;;;0.60;;
22967;SDS011;11650;48.106;-1.696;2023-04-23T08:42:50;1.27;;;0.67;;
22967;SDS011;11650;48.106;-1.696;2023-04-23T08:45:21;3.63;;;0.70;;
22967;SDS011;11650;48.106;-1.696;2023-04-23T08:47:48;0.90;;;0.80;;
22967;SDS011;11650;48.106;-1.696;2023-04-23T08:50:14;1.23;;;0.80;;
22967;SDS011;11650;48.106;-1.696;2023-04-23T08:52:45;1.20;;;0.70;;
22967;SDS011;11650;48.106;-1.696;2023-04-23T08:55:13;2.53;;;1.00;;
22967;SDS011;11650;48.106;-1.696;2023-04-23T08:57:40;1.83;;;0.90;;
22967;SDS011;11650;48.106;-1.696;2023-04-23T09:00:07;2.07;;;0.80;;
22967;SDS011;11650;48.106;-1.696;2023-04-23T09:02:35;1.50;;;0.80;;
22967;SDS011;11650;48.106;-1.696;2023-04-23T09:05:04;2.23;;;0.80;;
22967;SDS011;11650;48.106;-1.696;2023-04-23T09:07:31;1.63;;;0.90;;
22967;SDS011;11650;48.106;-1.696;2023-04-23T09:09:58;2.00;;;0.70;;
22967;SDS011;11650;48.106;-1.696;2023-04-23T09:12:24;0.60;;;0.60;;
22967;SDS011;11650;48.106;-1.696;2023-04-23T09:14:49;2.63;;;0.60;;
22967;SDS011;11650;48.106;-1.696;2023-04-23T09:17:16;3.37;;;0.60;;
22967;SDS011;11650;48.106;-1.696;2023-04-23T09:19:42;2.10;;;0.60;;
22967;SDS011;11650;48.106;-1.696;2023-04-23T09:22:10;3.03;;;0.70;;
22967;SDS011;11650;48.106;-1.696;2023-04-23T09:24:40;1.47;;;0.70;;
22967;SDS011;11650;48.106;-1.696;2023-04-23T09:27:08;2.57;;;0.70;;
22967;SDS011;11650;48.106;-1.696;2023-04-23T09:29:33;5.73;;;0.97;;
22967;SDS011;11650;48.106;-1.696;2023-04-23T09:32:07;2.47;;;1.00;;
22967;SDS011;11650;48.106;-1.696;2023-04-23T09:34:36;2.77;;;1.20;;
22967;SDS011;11650;48.106;-1.696;2023-04-23T09:37:03;2.00;;;1.00;;
22967;SDS011;11650;48.106;-1.696;2023-04-23T09:39:31;4.93;;;1.10;;
22967;SDS011;11650;48.106;-1.696;2023-04-23T09:42:02;6.57;;;1.37;;
22967;SDS011;11650;48.106;-1.696;2023-04-23T09:44:30;3.90;;;1.10;;
22967;SDS011;11650;48.106;-1.696;2023-04-23T09:47:07;5.37;;;1.30;;
22967;SDS011;11650;48.106;-1.696;2023-04-23T09:49:45;6.47;;;1.80;;
22967;SDS011;11650;48.106;-1.696;2023-04-23T09:52:11;3.13;;;1.23;;
22967;SDS011;11650;48.106;-1.696;2023-04-23T09:54:41;5.47;;;1.60;;
22967;SDS011;11650;48.106;-1.696;2023-04-23T09:57:07;6.37;;;1.23;;
22967;SDS011;11650;48.106;-1.696;2023-04-23T09:59:33;6.60;;;1.60;;
22967;SDS011;11650;48.106;-1.696;2023-04-23T10:02:03;6.27;;;1.33;;
22967;SDS011;11650;48.106;-1.696;2023-04-23T10:04:30;4.80;;;1.33;;
22967;SDS011;11650;48.106;-1.696;2023-04-23T10:07:00;5.80;;;1.60;;
22967;SDS011;11650;48.106;-1.696;2023-04-23T10:09:29;7.80;;;1.70;;
22967;SDS011;11650;48.106;-1.696;2023-04-23T10:11:58;5.07;;;1.70;;
22967;SDS011;11650;48.106;-1.696;2023-04-23T10:14:28;7.50;;;1.83;;
22967;SDS011;11650;48.106;-1.696;2023-04-23T10:16:59;4.77;;;1.67;;
22967;SDS011;11650;48.106;-1.696;2023-04-23T10:19:25;5.37;;;1.60;;
22967;SDS011;11650;48.106;-1.696;2023-04-23T10:21:57;5.83;;;2.00;;
22967;SDS011;11650;48.106;-1.696;2023-04-23T10:24:28;5.23;;;1.53;;
22967;SDS011;11650;48.106;-1.696;2023-04-23T10:26:57;5.90;;;1.93;;
22967;SDS011;11650;48.106;-1.696;2023-04-23T10:29:28;5.77;;;1.40;;
22967;SDS011;11650;48.106;-1.696;2023-04-23T10:31:56;5.73;;;1.73;;
22967;SDS011;11650;48.106;-1.696;2023-04-23T10:34:27;5.97;;;1.50;;
22967;SDS011;11650;48.106;-1.696;2023-04-23T10:36:55;4.37;;;1.50;;
22967;SDS011;11650;48.106;-1.696;2023-04-23T10:39:24;5.67;;;2.10;;
22967;SDS011;11650;48.106;-1.696;2023-04-23T10:41:51;7.93;;;1.50;;
22967;SDS011;11650;48.106;-1.696;2023-04-23T10:44:19;8.90;;;2.23;;
22967;SDS011;11650;48.106;-1.696;2023-04-23T10:46:56;10.27;;;2.20;;
22967;SDS011;11650;48.106;-1.696;2023-04-23T10:49:23;7.57;;;2.10;;
22967;SDS011;11650;48.106;-1.696;2023-04-23T10:51:57;8.50;;;2.33;;
22967;SDS011;11650;48.106;-1.696;2023-04-23T10:54:27;6.70;;;2.60;;
22967;SDS011;11650;48.106;-1.696;2023-04-23T10:56:59;5.37;;;1.90;;
22967;SDS011;11650;48.106;-1.696;2023-04-23T10:59:27;4.83;;;1.77;;
22967;SDS011;11650;48.106;-1.696;2023-04-23T11:01:57;6.80;;;1.80;;
22967;SDS011;11650;48.106;-1.696;2023-04-23T11:04:29;7.93;;;1.90;;
22967;SDS011;11650;48.106;-1.696;2023-04-23T11:07:03;10.03;;;1.80;;
22967;SDS011;11650;48.106;-1.696;2023-04-23T11:12:13;7.60;;;2.00;;
22967;SDS011;11650;48.106;-1.696;2023-04-23T11:14:56;4.67;;;1.70;;
22967;SDS011;11650;48.106;-1.696;2023-04-23T11:22:37;14.23;;;2.50;;
22967;SDS011;11650;48.106;-1.696;2023-04-23T11:25:08;7.70;;;2.80;;
22967;SDS011;11650;48.106;-1.696;2023-04-23T11:27:55;7.80;;;2.20;;
22967;SDS011;11650;48.106;-1.696;2023-04-23T11:30:23;6.47;;;2.30;;
22967;SDS011;11650;48.106;-1.696;2023-04-23T11:32:51;6.10;;;2.40;;
22967;SDS011;11650;48.106;-1.696;2023-04-23T11:35:18;6.60;;;2.10;;
22967;SDS011;11650;48.106;-1.696;2023-04-23T11:37:45;8.63;;;1.93;;
22967;SDS011;11650;48.106;-1.696;2023-04-23T11:40:13;7.57;;;2.57;;
22967;SDS011;11650;48.106;-1.696;2023-04-23T11:42:46;7.13;;;2.40;;
22967;SDS011;11650;48.106;-1.696;2023-04-23T11:45:23;10.07;;;2.73;;
22967;SDS011;11650;48.106;-1.696;2023-04-23T11:47:51;8.17;;;2.20;;
22967;SDS011;11650;48.106;-1.696;2023-04-23T11:50:20;8.63;;;2.00;;
22967;SDS011;11650;48.106;-1.696;2023-04-23T11:52:47;7.63;;;1.97;;
22967;SDS011;11650;48.106;-1.696;2023-04-23T11:55:14;7.93;;;1.50;;
22967;SDS011;11650;48.106;-1.696;2023-04-23T11:57:44;4.37;;;1.50;;
22967;SDS011;11650;48.106;-1.696;2023-04-23T12:00:12;4.57;;;1.50;;
22967;SDS011;11650;48.106;-1.696;2023-04-23T12:02:53;3.73;;;1.20;;
22967;SDS011;11650;48.106;-1.696;2023-04-23T12:05:22;7.80;;;1.50;;
22967;SDS011;11650;48.106;-1.696;2023-04-23T12:08:05;5.20;;;1.50;;
22967;SDS011;11650;48.106;-1.696;2023-04-23T12:10:40;8.17;;;1.00;;
22967;SDS011;11650;48.106;-1.696;2023-04-23T12:13:17;2.40;;;0.70;;
22967;SDS011;11650;48.106;-1.696;2023-04-23T12:15:48;3.27;;;0.90;;
22967;SDS011;11650;48.106;-1.696;2023-04-23T12:18:15;4.03;;;1.10;;
22967;SDS011;11650;48.106;-1.696;2023-04-23T12:20:41;3.67;;;0.87;;
22967;SDS011;11650;48.106;-1.696;2023-04-23T12:23:07;2.57;;;0.90;;
22967;SDS011;11650;48.106;-1.696;2023-04-23T12:25:33;3.63;;;0.90;;
22967;SDS011;11650;48.106;-1.696;2023-04-23T12:27:59;2.63;;;0.93;;
22967;SDS011;11650;48.106;-1.696;2023-04-23T12:30:28;3.83;;;1.10;;
22967;SDS011;11650;48.106;-1.696;2023-04-23T12:33:00;2.70;;;1.10;;
22967;SDS011;11650;48.106;-1.696;2023-04-23T12:35:43;3.60;;;1.00;;
22967;SDS011;11650;48.106;-1.696;2023-04-23T12:38:28;3.67;;;1.10;;
22967;SDS011;11650;48.106;-1.696;2023-04-23T12:40:57;2.67;;;1.10;;
22967;SDS011;11650;48.106;-1.696;2023-04-23T12:43:24;3.00;;;1.10;;
22967;SDS011;11650;48.106;-1.696;2023-04-23T12:45:51;3.07;;;1.30;;
22967;SDS011;11650;48.106;-1.696;2023-04-23T12:48:18;2.80;;;1.20;;
22967;SDS011;11650;48.106;-1.696;2023-04-23T12:50:44;4.13;;;1.40;;
22967;SDS011;11650;48.106;-1.696;2023-04-23T12:53:10;1.67;;;1.23;;
22967;SDS011;11650;48.106;-1.696;2023-04-23T12:55:36;2.60;;;1.20;;
22967;SDS011;11650;48.106;-1.696;2023-04-23T12:58:07;1.87;;;1.40;;
22967;SDS011;11650;48.106;-1.696;2023-04-23T13:00:32;3.37;;;1.40;;
22967;SDS011;11650;48.106;-1.696;2023-04-23T13:02:58;3.43;;;1.30;;
22967;SDS011;11650;48.106;-1.696;2023-04-23T13:05:24;2.27;;;1.50;;
22967;SDS011;11650;48.106;-1.696;2023-04-23T13:07:49;1.73;;;1.40;;
22967;SDS011;11650;48.106;-1.696;2023-04-23T13:10:17;2.57;;;1.40;;
22967;SDS011;11650;48.106;-1.696;2023-04-23T13:12:43;3.33;;;1.23;;
22967;SDS011;11650;48.106;-1.696;2023-04-23T13:15:09;2.27;;;1.20;;
22967;SDS011;11650;48.106;-1.696;2023-04-23T13:17:36;2.17;;;1.37;;
22967;SDS011;11650;48.106;-1.696;2023-04-23T13:20:02;1.57;;;1.00;;
22967;SDS011;11650;48.106;-1.696;2023-04-23T13:22:29;1.47;;;1.20;;
22967;SDS011;11650;48.106;-1.696;2023-04-23T13:24:55;2.20;;;1.10;;
22967;SDS011;11650;48.106;-1.696;2023-04-23T13:27:25;2.17;;;1.00;;
22967;SDS011;11650;48.106;-1.696;2023-04-23T13:29:52;2.03;;;1.03;;
22967;SDS011;11650;48.106;-1.696;2023-04-23T13:32:17;2.57;;;1.47;;
22967;SDS011;11650;48.106;-1.696;2023-04-23T13:34:43;2.70;;;1.20;;
22967;SDS011;11650;48.106;-1.696;2023-04-23T13:37:09;1.80;;;1.40;;
22967;SDS011;11650;48.106;-1.696;2023-04-23T13:39:35;1.43;;;1.30;;
22967;SDS011;11650;48.106;-1.696;2023-04-23T13:42:01;2.00;;;1.37;;
22967;SDS011;11650;48.106;-1.696;2023-04-23T13:44:28;2.70;;;1.30;;
22967;SDS011;11650;48.106;-1.696;2023-04-23T13:46:55;1.97;;;1.10;;
22967;SDS011;11650;48.106;-1.696;2023-04-23T13:49:22;2.30;;;1.30;;
22967;SDS011;11650;48.106;-1.696;2023-04-23T13:51:52;1.50;;;1.10;;
22967;SDS011;11650;48.106;-1.696;2023-04-23T13:54:22;1.57;;;1.10;;
22967;SDS011;11650;48.106;-1.696;2023-04-23T13:56:51;1.43;;;1.10;;
22967;SDS011;11650;48.106;-1.696;2023-04-23T13:59:16;3.27;;;1.50;;
22967;SDS011;11650;48.106;-1.696;2023-04-23T14:01:42;2.80;;;2.10;;
22967;SDS011;11650;48.106;-1.696;2023-04-23T14:04:08;3.30;;;2.50;;
22967;SDS011;11650;48.106;-1.696;2023-04-23T14:06:33;3.73;;;2.67;;
22967;SDS011;11650;48.106;-1.696;2023-04-23T14:08:59;3.17;;;2.57;;
22967;SDS011;11650;48.106;-1.696;2023-04-23T14:11:25;3.90;;;2.70;;
22967;SDS011;11650;48.106;-1.696;2023-04-23T14:13:51;2.93;;;2.63;;
22967;SDS011;11650;48.106;-1.696;2023-04-23T14:16:17;4.57;;;2.57;;
22967;SDS011;11650;48.106;-1.696;2023-04-23T14:18:42;3.63;;;2.50;;
22967;SDS011;11650;48.106;-1.696;2023-04-23T14:21:08;3.80;;;2.13;;
22967;SDS011;11650;48.106;-1.696;2023-04-23T14:26:22;2.50;;;2.07;;
22967;SDS011;11650;48.106;-1.696;2023-04-23T14:28:57;3.33;;;2.00;;
22967;SDS011;11650;48.106;-1.696;2023-04-23T14:31:56;1.93;;;1.57;;
22967;SDS011;11650;48.106;-1.696;2023-04-23T14:34:22;2.33;;;1.27;;
22967;SDS011;11650;48.106;-1.696;2023-04-23T14:36:48;2.37;;;1.87;;
22967;SDS011;11650;48.106;-1.696;2023-04-23T14:39:16;1.87;;;1.30;;
22967;SDS011;11650;48.106;-1.696;2023-04-23T14:41:42;3.33;;;1.70;;